createdAt,value
2022-09-28T00:01:27.155Z,92683.72
2022-09-28T00:03:58.277Z,92684.16
2022-09-28T00:06:26.474Z,92676.50
2022-09-28T00:08:53.528Z,92674.69
2022-09-28T00:11:21.862Z,92667.88
2022-09-28T00:13:51.715Z,92661.69
2022-09-28T00:16:21.481Z,92662.56
2022-09-28T00:18:50.147Z,92653.28
2022-09-28T00:21:19.503Z,92651.72
2022-09-28T00:24:04.884Z,92641.47
2022-09-28T00:26:33.344Z,92647.88
2022-09-28T00:29:02.397Z,92628.88
2022-09-28T00:31:32.800Z,92625.34
2022-09-28T00:34:01.812Z,92618.81
2022-09-28T00:36:30.950Z,92615.03
2022-09-28T00:38:59.010Z,92614.25
2022-09-28T00:41:27.827Z,92600.16
2022-09-28T00:44:31.491Z,92615.16
2022-09-28T00:47:02.110Z,92614.19
2022-09-28T00:49:40.453Z,92610.91
2022-09-28T00:52:10.802Z,92599.56
2022-09-28T00:54:37.787Z,92592.38
2022-09-28T00:57:05.167Z,92587.81
2022-09-28T00:59:33.941Z,92585.28
2022-09-28T01:02:01.941Z,92577.28
2022-09-28T01:04:30.165Z,92571.31
2022-09-28T01:06:58.004Z,92561.78
2022-09-28T01:09:27.281Z,92546.88
2022-09-28T01:11:55.191Z,92545.84
2022-09-28T01:14:25.754Z,92543.53
2022-09-28T01:17:07.457Z,92532.16
2022-09-28T01:20:05.783Z,92534.03
2022-09-28T01:23:13.067Z,92518.38
2022-09-28T01:26:32.271Z,92515.72
2022-09-28T01:29:16.428Z,92507.72
2022-09-28T01:31:49.993Z,92495.22
2022-09-28T01:34:25.475Z,92495.22
2022-09-28T01:36:56.015Z,92487.94
2022-09-28T01:39:29.496Z,92487.19
2022-09-28T01:42:04.200Z,92473.44
2022-09-28T01:44:39.782Z,92466.22
2022-09-28T01:47:12.486Z,92471.19
2022-09-28T01:49:52.782Z,92465.84
2022-09-28T01:52:49.265Z,92450.56
2022-09-28T01:55:30.154Z,92448.59
2022-09-28T01:58:03.389Z,92445.94
2022-09-28T02:00:30.567Z,92447.88
2022-09-28T02:03:22.463Z,92443.31
2022-09-28T02:06:24.745Z,92430.75
2022-09-28T02:08:56.234Z,92433.00
2022-09-28T02:11:32.474Z,92419.66
2022-09-28T02:14:04.390Z,92435.25
2022-09-28T02:16:41.281Z,92425.00
2022-09-28T02:19:15.260Z,92415.44
2022-09-28T02:21:48.902Z,92415.03
2022-09-28T02:24:27.443Z,92416.22
2022-09-28T02:26:57.036Z,92407.81
2022-09-28T02:29:24.465Z,92409.00
2022-09-28T02:31:52.159Z,92405.06
2022-09-28T02:34:19.000Z,92405.47
2022-09-28T02:36:46.895Z,92401.28
2022-09-28T02:39:16.133Z,92404.72
2022-09-28T02:41:54.772Z,92397.91
2022-09-28T02:44:21.351Z,92396.41
2022-09-28T02:47:00.130Z,92389.19
2022-09-28T02:49:33.755Z,92391.16
2022-09-28T02:52:16.144Z,92385.03
2022-09-28T02:55:10.232Z,92388.47
2022-09-28T02:58:03.662Z,92376.25
2022-09-28T03:00:37.865Z,92379.69
2022-09-28T03:03:10.692Z,92380.50
2022-09-28T03:05:44.283Z,92378.19
2022-09-28T03:08:23.153Z,92375.94
2022-09-28T03:11:16.633Z,92360.34
2022-09-28T03:13:51.707Z,92366.09
2022-09-28T03:16:21.109Z,92359.22
2022-09-28T03:18:49.223Z,92362.66
2022-09-28T03:21:16.447Z,92360.34
2022-09-28T03:23:43.474Z,92352.34
2022-09-28T03:26:12.748Z,92353.88
2022-09-28T03:28:40.333Z,92350.09
2022-09-28T03:31:10.184Z,92345.88
2022-09-28T03:33:36.933Z,92347.81
2022-09-28T03:36:03.834Z,92344.03
2022-09-28T03:38:30.970Z,92334.91
2022-09-28T03:41:00.288Z,92339.53
2022-09-28T03:43:31.752Z,92345.63
2022-09-28T03:46:02.588Z,92331.94
2022-09-28T03:48:35.316Z,92327.72
2022-09-28T03:51:04.739Z,92323.88
2022-09-28T03:53:33.098Z,92317.03
2022-09-28T03:56:07.217Z,92323.56
2022-09-28T03:58:34.789Z,92314.78
2022-09-28T04:01:16.591Z,92307.19
2022-09-28T04:03:45.707Z,92310.56
2022-09-28T04:06:12.959Z,92312.13
2022-09-28T04:08:40.099Z,92302.16
2022-09-28T04:11:08.336Z,92293.75
2022-09-28T04:13:35.134Z,92292.25
2022-09-28T04:16:02.159Z,92292.25
2022-09-28T04:18:33.442Z,92288.81
2022-09-28T04:21:23.195Z,92290.72
2022-09-28T04:23:55.706Z,92292.25
2022-09-28T04:26:26.480Z,92282.75
2022-09-28T04:29:22.377Z,92283.16
2022-09-28T04:31:55.412Z,92289.31
2022-09-28T04:34:33.116Z,92287.75
2022-09-28T04:37:02.098Z,92287.81
2022-09-28T04:39:28.976Z,92289.34
2022-09-28T04:41:56.592Z,92274.88
2022-09-28T04:44:23.246Z,92279.84
2022-09-28T04:46:56.313Z,92272.25
2022-09-28T04:49:28.923Z,92273.78
2022-09-28T04:52:07.696Z,92278.06
2022-09-28T04:54:35.017Z,92270.81
2022-09-28T04:57:03.367Z,92266.66
2022-09-28T04:59:30.038Z,92268.97
2022-09-28T05:01:56.727Z,92270.50
2022-09-28T05:04:49.119Z,92278.19
2022-09-28T05:07:34.299Z,92279.41
2022-09-28T05:10:02.971Z,92280.94
2022-09-28T05:12:32.273Z,92268.69
2022-09-28T05:15:00.630Z,92278.53
2022-09-28T05:17:27.444Z,92275.88
2022-09-28T05:20:20.354Z,92275.16
2022-09-28T05:22:47.033Z,92267.13
2022-09-28T05:25:13.819Z,92271.28
2022-09-28T05:27:57.008Z,92270.53
2022-09-28T05:30:46.983Z,92270.88
2022-09-28T05:33:37.197Z,92276.22
2022-09-28T05:36:11.646Z,92280.84
2022-09-28T05:38:38.473Z,92285.00
2022-09-28T05:41:06.714Z,92325.84
2022-09-28T05:43:33.632Z,92325.84
2022-09-28T05:46:03.374Z,92325.34
2022-09-28T05:48:30.523Z,92327.50
2022-09-28T05:50:58.733Z,92329.97
2022-09-28T05:53:26.476Z,92334.78
2022-09-28T05:55:57.872Z,92333.50
2022-09-28T05:58:24.563Z,92334.56
2022-09-28T06:00:58.343Z,92337.66
2022-09-28T06:03:25.430Z,92341.50
2022-09-28T06:05:52.108Z,92331.56
2022-09-28T06:08:19.286Z,92336.47
2022-09-28T06:10:52.938Z,92335.41
2022-09-28T06:13:20.007Z,92329.72
2022-09-28T06:15:47.790Z,92338.84
2022-09-28T06:18:15.060Z,92346.50
2022-09-28T06:21:13.126Z,92340.03
2022-09-28T06:23:48.973Z,92340.44
2022-09-28T06:26:17.613Z,92336.59
2022-09-28T06:28:44.963Z,92344.59
2022-09-28T06:31:12.003Z,92347.25
2022-09-28T06:33:46.236Z,92357.19
2022-09-28T06:36:13.384Z,92369.03
2022-09-28T06:38:40.155Z,92369.81
2022-09-28T06:41:07.023Z,92371.31
2022-09-28T06:43:35.066Z,92376.25
2022-09-28T06:46:20.943Z,92371.28
2022-09-28T06:48:47.654Z,92368.19
2022-09-28T06:51:19.187Z,92374.25
2022-09-28T06:53:53.973Z,92378.81
2022-09-28T06:56:33.024Z,92375.84
2022-09-28T06:59:00.057Z,92382.75
2022-09-28T07:01:27.695Z,92379.28
2022-09-28T07:04:02.212Z,92380.00
2022-09-28T07:06:48.214Z,92378.81
2022-09-28T07:09:49.377Z,92382.72
2022-09-28T07:12:36.616Z,92394.53
2022-09-28T07:15:16.896Z,92386.59
2022-09-28T07:17:58.896Z,92393.97
2022-09-28T07:20:29.707Z,92390.53
2022-09-28T07:23:09.756Z,92394.75
2022-09-28T07:26:08.740Z,92401.13
2022-09-28T07:28:55.917Z,92417.22
2022-09-28T07:31:38.459Z,92412.00
2022-09-28T07:34:43.649Z,92418.19
2022-09-28T07:37:38.037Z,92411.84
2022-09-28T07:40:25.293Z,92431.72
2022-09-28T07:42:52.868Z,92419.25
2022-09-28T07:45:26.451Z,92426.72
2022-09-28T07:47:56.203Z,92426.06
2022-09-28T07:50:52.262Z,92435.78
2022-09-28T07:53:34.353Z,92443.03
2022-09-28T07:56:20.249Z,92435.06
2022-09-28T07:59:22.397Z,92435.84
2022-09-28T08:02:01.253Z,92448.38
2022-09-28T08:04:30.145Z,92449.50
2022-09-28T08:06:56.870Z,92449.44
2022-09-28T08:09:23.559Z,92455.06
2022-09-28T08:12:09.465Z,92460.72
2022-09-28T08:15:02.486Z,92468.59
2022-09-28T08:17:52.178Z,92474.25
2022-09-28T08:20:39.616Z,92481.97
2022-09-28T08:23:08.295Z,92483.63
2022-09-28T08:25:38.377Z,92477.41
2022-09-28T08:28:09.504Z,92472.66
2022-09-28T08:30:45.118Z,92459.38
2022-09-28T08:33:30.855Z,92470.06
2022-09-28T08:36:16.099Z,92481.00
2022-09-28T08:39:01.206Z,92486.44
2022-09-28T08:41:57.692Z,92489.59
2022-09-28T08:44:39.442Z,92484.59
2022-09-28T08:47:48.838Z,92490.03
2022-09-28T08:50:55.285Z,92495.19
2022-09-28T08:53:50.660Z,92498.25
2022-09-28T08:56:31.045Z,92488.22
2022-09-28T08:59:02.640Z,92488.13
2022-09-28T09:01:37.441Z,92490.06
2022-09-28T09:04:08.149Z,92499.00
2022-09-28T09:07:11.720Z,92509.34
2022-09-28T09:10:09.901Z,92503.81
2022-09-28T09:12:54.568Z,92495.59
2022-09-28T09:15:38.942Z,92504.47
2022-09-28T09:18:24.312Z,92526.03
2022-09-28T09:21:14.416Z,92511.16
2022-09-28T09:23:56.820Z,92539.50
2022-09-28T09:26:35.466Z,92546.91
2022-09-28T09:29:31.460Z,92555.16
2022-09-28T09:32:04.468Z,92551.94
2022-09-28T09:35:01.488Z,92538.38
2022-09-28T09:38:32.043Z,92543.97
2022-09-28T09:41:49.882Z,92556.19
2022-09-28T09:45:14.421Z,92557.38
2022-09-28T09:48:10.831Z,92557.44
2022-09-28T09:51:00.463Z,92557.94
2022-09-28T09:53:38.557Z,92557.13
2022-09-28T09:56:28.194Z,92554.78
2022-09-28T09:59:19.003Z,92557.47
2022-09-28T10:02:03.054Z,92559.94
2022-09-28T10:04:46.737Z,92573.31
2022-09-28T10:07:34.993Z,92561.75
2022-09-28T10:10:03.324Z,92578.13
2022-09-28T10:12:51.130Z,92566.88
2022-09-28T10:15:29.507Z,92563.97
2022-09-28T10:18:21.260Z,92560.50
2022-09-28T10:21:06.328Z,92568.75
2022-09-28T10:23:56.758Z,92557.63
2022-09-28T10:26:35.649Z,92549.38
2022-09-28T10:29:15.861Z,92548.06
2022-09-28T10:31:45.641Z,92548.47
2022-09-28T10:34:29.025Z,92562.28
2022-09-28T10:37:06.713Z,92553.44
2022-09-28T10:39:53.608Z,92554.22
2022-09-28T10:42:25.563Z,92556.91
2022-09-28T10:44:56.911Z,92562.13
2022-09-28T10:47:35.664Z,92570.63
2022-09-28T10:50:21.178Z,92572.88
2022-09-28T10:52:49.673Z,92566.44
2022-09-28T10:56:04.397Z,92570.06
2022-09-28T10:58:40.538Z,92574.31
2022-09-28T11:01:16.018Z,92559.34
2022-09-28T11:03:51.363Z,92567.88
2022-09-28T11:06:30.228Z,92560.97
2022-09-28T11:09:05.119Z,92559.56
2022-09-28T11:11:41.687Z,92560.72
2022-09-28T11:14:42.172Z,92549.47
2022-09-28T11:17:38.887Z,92557.75
2022-09-28T11:20:27.988Z,92570.78
2022-09-28T11:22:59.617Z,92578.06
2022-09-28T11:25:31.406Z,92570.34
2022-09-28T11:28:04.536Z,92577.72
2022-09-28T11:30:42.257Z,92573.53
2022-09-28T11:33:38.945Z,92570.94
2022-09-28T11:36:53.050Z,92563.38
2022-09-28T11:39:33.944Z,92565.72
2022-09-28T11:42:15.580Z,92571.72
2022-09-28T11:45:01.527Z,92567.00
2022-09-28T11:47:47.127Z,92567.75
2022-09-28T11:50:24.117Z,92573.06
2022-09-28T11:53:02.738Z,92570.03
2022-09-28T11:55:40.524Z,92567.72
2022-09-28T11:58:18.065Z,92565.88
2022-09-28T12:00:52.195Z,92559.25
2022-09-28T12:03:45.228Z,92572.81
2022-09-28T12:06:18.388Z,92570.91
2022-09-28T12:08:58.341Z,92563.97
2022-09-28T12:11:54.620Z,92570.81
2022-09-28T12:14:38.598Z,92560.56
2022-09-28T12:17:19.237Z,92581.63
2022-09-28T12:20:05.488Z,92574.94
2022-09-28T12:22:38.059Z,92572.25
2022-09-28T12:25:12.657Z,92573.00
2022-09-28T12:27:53.656Z,92564.25
2022-09-28T12:30:22.554Z,92566.69
2022-09-28T12:33:04.449Z,92575.91
2022-09-28T12:35:50.020Z,92585.84
2022-09-28T12:38:32.013Z,92582.13
2022-09-28T12:41:33.091Z,92589.47
2022-09-28T12:44:10.097Z,92581.09
2022-09-28T12:47:14.764Z,92581.81
2022-09-28T12:52:51.330Z,92597.16
2022-09-28T12:55:46.892Z,92592.19
2022-09-28T12:58:38.684Z,92594.84
2022-09-28T13:01:25.985Z,92596.91
2022-09-28T13:04:15.545Z,92604.28
2022-09-28T13:06:51.898Z,92600.88
2022-09-28T13:09:24.654Z,92600.47
2022-09-28T13:12:03.502Z,92604.22
2022-09-28T13:14:53.216Z,92602.56
2022-09-28T13:17:38.793Z,92603.66
2022-09-28T13:20:21.504Z,92604.47
2022-09-28T13:23:03.453Z,92606.78
2022-09-28T13:25:34.784Z,92609.13
2022-09-28T13:28:03.845Z,92593.44
2022-09-28T13:30:33.817Z,92598.81
2022-09-28T13:33:03.675Z,92602.31
2022-09-28T13:35:30.888Z,92577.22
2022-09-28T13:38:18.967Z,92595.69
2022-09-28T13:41:03.984Z,92590.34
2022-09-28T13:44:21.023Z,92586.97
2022-09-28T13:47:05.359Z,92599.66
2022-09-28T13:50:03.440Z,92598.84
2022-09-28T13:52:39.729Z,92590.38
2022-09-28T13:55:09.319Z,92598.06
2022-09-28T13:57:46.334Z,92597.66
2022-09-28T14:00:52.131Z,92602.69
2022-09-28T14:03:37.104Z,92587.00
2022-09-28T14:06:11.452Z,92598.81
2022-09-28T14:09:05.692Z,92603.44
2022-09-28T14:11:34.264Z,92609.25
2022-09-28T14:14:08.018Z,92609.22
2022-09-28T14:16:36.895Z,92617.22
2022-09-28T14:19:07.240Z,92609.97
2022-09-28T14:22:17.603Z,92614.59
2022-09-28T14:25:06.616Z,92609.84
2022-09-28T14:28:01.261Z,92628.88
2022-09-28T14:30:46.788Z,92614.59
2022-09-28T14:33:25.498Z,92616.00
2022-09-28T14:36:04.000Z,92621.72
2022-09-28T14:39:08.189Z,92624.84
2022-09-28T14:41:38.031Z,92626.69
2022-09-28T14:44:08.384Z,92619.88
2022-09-28T14:46:36.283Z,92626.81
2022-09-28T14:49:03.660Z,92624.91
2022-09-28T14:51:30.312Z,92625.72
2022-09-28T14:54:02.339Z,92621.44
2022-09-28T14:56:33.297Z,92627.13
2022-09-28T14:59:00.980Z,92630.94
2022-09-28T15:01:27.828Z,92632.19
2022-09-28T15:03:57.074Z,92623.00
2022-09-28T15:06:24.716Z,92629.03
2022-09-28T15:08:51.505Z,92626.22
2022-09-28T15:11:24.421Z,92640.06
2022-09-28T15:14:04.567Z,92634.31
2022-09-28T15:16:32.165Z,92636.25
2022-09-28T15:19:23.639Z,92635.03
2022-09-28T15:21:51.273Z,92629.16
2022-09-28T15:24:32.042Z,92634.16
2022-09-28T15:27:00.316Z,92631.91
2022-09-28T15:29:31.202Z,92621.75
2022-09-28T15:31:58.597Z,92629.09
2022-09-28T15:34:51.482Z,92631.34
2022-09-28T15:37:30.093Z,92630.22
2022-09-28T15:39:58.372Z,92628.31
2022-09-28T15:42:25.634Z,92622.19
2022-09-28T15:45:01.231Z,92620.63
2022-09-28T15:47:29.873Z,92616.81
2022-09-28T15:50:00.719Z,92624.50
2022-09-28T15:52:44.856Z,92632.47
2022-09-28T15:55:22.179Z,92630.47
2022-09-28T15:57:48.924Z,92638.09
2022-09-28T16:00:28.535Z,92640.41
2022-09-28T16:03:00.311Z,92641.53
2022-09-28T16:05:37.848Z,92636.53
2022-09-28T16:08:05.491Z,92637.69
2022-09-28T16:10:34.434Z,92622.69
2022-09-28T16:13:15.674Z,92638.00
2022-09-28T16:15:42.855Z,92647.56
2022-09-28T16:18:20.705Z,92643.34
2022-09-28T16:20:52.691Z,92643.69
2022-09-28T16:23:20.849Z,92641.00
2022-09-28T16:25:52.351Z,92636.69
2022-09-28T16:28:34.902Z,92645.44
2022-09-28T16:31:13.805Z,92651.50
2022-09-28T16:34:01.544Z,92649.19
2022-09-28T16:36:39.507Z,92651.44
2022-09-28T16:39:06.169Z,92647.19
2022-09-28T16:41:33.060Z,92641.34
2022-09-28T16:44:02.418Z,92650.03
2022-09-28T16:46:37.223Z,92643.81
2022-09-28T16:49:06.144Z,92645.31
2022-09-28T16:51:33.738Z,92645.59
2022-09-28T16:54:32.068Z,92634.44
2022-09-28T16:56:58.900Z,92638.19
2022-09-28T16:59:25.566Z,92636.59
2022-09-28T17:01:52.388Z,92650.84
2022-09-28T17:04:19.037Z,92653.91
2022-09-28T17:06:45.743Z,92645.81
2022-09-28T17:09:12.949Z,92643.50
2022-09-28T17:11:39.868Z,92646.75
2022-09-28T17:14:06.519Z,92651.69
2022-09-28T17:17:06.211Z,92653.59
2022-09-28T17:19:23.905Z,92657.03
2022-09-28T17:21:52.209Z,92657.75
2022-09-28T17:24:20.020Z,92659.22
2022-09-28T17:26:49.055Z,92656.03
2022-09-28T17:29:16.091Z,92656.91
2022-09-28T17:31:44.329Z,92657.63
2022-09-28T17:34:12.860Z,92655.72
2022-09-28T17:36:41.628Z,92661.69
2022-09-28T17:39:13.583Z,92665.50
2022-09-28T17:41:40.949Z,92675.34
2022-09-28T17:44:07.862Z,92672.97
2022-09-28T17:46:37.350Z,92682.47
2022-09-28T17:49:06.233Z,92674.25
2022-09-28T17:51:35.476Z,92689.50
2022-09-28T17:54:02.215Z,92665.91
2022-09-28T17:56:32.151Z,92676.25
2022-09-28T17:59:05.581Z,92683.13
2022-09-28T18:01:36.255Z,92685.66
2022-09-28T18:04:05.458Z,92691.47
2022-09-28T18:06:33.785Z,92690.56
2022-09-28T18:09:02.869Z,92690.56
2022-09-28T18:11:30.312Z,92697.44
2022-09-28T18:13:56.992Z,92701.94
2022-09-28T18:16:23.830Z,92708.41
2022-09-28T18:18:50.523Z,92704.13
2022-09-28T18:21:17.384Z,92701.16
2022-09-28T18:23:44.007Z,92701.94
2022-09-28T18:26:12.260Z,92711.06
2022-09-28T18:28:39.224Z,92716.28
2022-09-28T18:31:10.426Z,92708.91
2022-09-28T18:33:37.810Z,92715.44
2022-09-28T18:36:05.510Z,92727.66
2022-09-28T18:38:34.596Z,92728.28
2022-09-28T18:41:15.568Z,92721.31
2022-09-28T18:43:43.307Z,92723.53
2022-09-28T18:46:11.462Z,92734.22
2022-09-28T18:48:40.532Z,92738.72
2022-09-28T18:51:12.276Z,92744.41
2022-09-28T18:53:39.920Z,92745.63
2022-09-28T18:56:08.552Z,92749.41
2022-09-28T18:58:37.002Z,92746.44
2022-09-28T19:01:28.419Z,92757.06
2022-09-28T19:03:54.972Z,92760.50
2022-09-28T19:06:21.660Z,92758.97
2022-09-28T19:08:53.437Z,92761.34
2022-09-28T19:11:20.063Z,92766.25
2022-09-28T19:13:46.807Z,92749.41
2022-09-28T19:16:21.923Z,92762.53
2022-09-28T19:18:50.124Z,92761.75
2022-09-28T19:21:16.770Z,92763.56
2022-09-28T19:23:49.030Z,92768.66
2022-09-28T19:26:19.238Z,92774.06
2022-09-28T19:28:45.929Z,92771.75
2022-09-28T19:31:13.040Z,92777.78
2022-09-28T19:33:40.797Z,92780.88
2022-09-28T19:36:13.084Z,92780.88
2022-09-28T19:38:40.142Z,92781.56
2022-09-28T19:41:12.232Z,92784.94
2022-09-28T19:43:43.747Z,92775.66
2022-09-28T19:46:10.790Z,92776.69
2022-09-28T19:48:37.487Z,92781.94
2022-09-28T19:51:06.230Z,92774.19
2022-09-28T19:53:36.699Z,92790.03
2022-09-28T19:56:05.536Z,92787.03
2022-09-28T19:58:36.877Z,92790.47
2022-09-28T20:01:07.616Z,92792.97
2022-09-28T20:03:35.229Z,92786.72
2022-09-28T20:06:02.363Z,92792.88
2022-09-28T20:08:32.291Z,92793.72
2022-09-28T20:10:59.926Z,92793.66
2022-09-28T20:13:32.258Z,92786.16
2022-09-28T20:16:09.655Z,92799.59
2022-09-28T20:18:38.456Z,92791.66
2022-09-28T20:21:07.636Z,92795.19
2022-09-28T20:23:37.088Z,92804.03
2022-09-28T20:26:05.500Z,92799.91
2022-09-28T20:28:32.915Z,92798.09
2022-09-28T20:31:08.161Z,92803.50
2022-09-28T20:33:36.251Z,92800.16
2022-09-28T20:36:07.231Z,92797.47
2022-09-28T20:38:34.476Z,92800.50
2022-09-28T20:41:02.597Z,92795.50
2022-09-28T20:43:34.515Z,92800.84
2022-09-28T20:46:02.379Z,92795.41
2022-09-28T20:48:29.634Z,92797.41
2022-09-28T20:51:00.758Z,92807.66
2022-09-28T20:53:27.581Z,92809.81
2022-09-28T20:56:01.743Z,92815.13
2022-09-28T20:58:29.099Z,92816.94
2022-09-28T21:01:11.041Z,92814.56
2022-09-28T21:03:38.399Z,92807.75
2022-09-28T21:06:12.026Z,92816.81
2022-09-28T21:08:38.970Z,92823.69
2022-09-28T21:11:07.200Z,92821.28
2022-09-28T21:13:33.865Z,92809.16
2022-09-28T21:16:03.175Z,92819.22
2022-09-28T21:18:30.726Z,92816.56
2022-09-28T21:20:57.352Z,92813.78
2022-09-28T21:23:25.105Z,92811.81
2022-09-28T21:26:05.413Z,92815.94
2022-09-28T21:28:32.340Z,92819.38
2022-09-28T21:31:00.887Z,92822.75
2022-09-28T21:33:28.969Z,92816.31
2022-09-28T21:35:55.879Z,92811.31
2022-09-28T21:38:22.537Z,92805.56
2022-09-28T21:40:54.866Z,92808.47
2022-09-28T21:43:22.152Z,92811.81
2022-09-28T21:45:53.644Z,92812.50
2022-09-28T21:48:22.316Z,92808.28
2022-09-28T21:51:06.877Z,92813.19
2022-09-28T21:53:35.715Z,92810.34
2022-09-28T21:56:04.216Z,92804.59
2022-09-28T21:58:33.701Z,92803.47
2022-09-28T22:01:08.908Z,92811.47
2022-09-28T22:03:36.911Z,92806.38
2022-09-28T22:06:05.784Z,92806.38
2022-09-28T22:08:33.329Z,92804.50
2022-09-28T22:11:12.563Z,92801.41
2022-09-28T22:13:42.185Z,92807.06
2022-09-28T22:16:10.568Z,92819.78
2022-09-28T22:18:37.680Z,92815.03
2022-09-28T22:21:08.943Z,92805.63
2022-09-28T22:23:37.075Z,92810.97
2022-09-28T22:26:20.679Z,92805.53
2022-09-28T22:28:49.491Z,92816.13
2022-09-28T22:31:18.100Z,92808.38
2022-09-28T22:33:45.216Z,92804.41
2022-09-28T22:36:12.558Z,92816.16
2022-09-28T22:38:40.135Z,92801.97
2022-09-28T22:41:07.045Z,92799.75
2022-09-28T22:43:34.809Z,92802.16
2022-09-28T22:46:13.740Z,92798.41
2022-09-28T22:48:42.501Z,92806.16
2022-09-28T22:51:09.825Z,92807.03
2022-09-28T22:53:36.493Z,92807.78
2022-09-28T22:56:05.629Z,92803.66
2022-09-28T22:58:33.856Z,92813.19
2022-09-28T23:01:21.930Z,92808.97
2022-09-28T23:03:51.230Z,92803.59
2022-09-28T23:06:21.413Z,92795.72
2022-09-28T23:08:49.841Z,92800.53
2022-09-28T23:11:17.396Z,92803.38
2022-09-28T23:13:51.286Z,92817.81
2022-09-28T23:16:18.340Z,92808.63
2022-09-28T23:18:45.487Z,92799.75
2022-09-28T23:21:18.022Z,92795.53
2022-09-28T23:23:46.120Z,92802.16
2022-09-28T23:26:16.284Z,92801.50
2022-09-28T23:28:43.477Z,92796.16
2022-09-28T23:31:36.827Z,92802.72
2022-09-28T23:34:06.188Z,92815.34
2022-09-28T23:36:34.113Z,92808.13
2022-09-28T23:39:01.251Z,92811.91
2022-09-28T23:41:28.644Z,92809.19
2022-09-28T23:43:55.470Z,92804.47
2022-09-28T23:46:22.593Z,92796.84
2022-09-28T23:48:50.101Z,92800.63
2022-09-28T23:51:18.484Z,92799.41
2022-09-28T23:53:45.843Z,92803.19
2022-09-28T23:56:14.642Z,92805.06
2022-09-28T23:58:41.619Z,92789.75
